sensor_id;sensor_type;location;lat;lon;timestamp;P1;durP1;ratioP1;P2;durP2;ratioP2
71955;SDS011;59829;50.562;6.258;2023-12-29T00:00:39;2.00;;;0.30;;
71955;SDS011;59829;50.562;6.258;2023-12-29T00:10:40;1.55;;;0.50;;
71955;SDS011;59829;50.562;6.258;2023-12-29T00:20:40;3.25;;;0.55;;
71955;SDS011;59829;50.562;6.258;2023-12-29T00:30:41;1.10;;;0.30;;
71955;SDS011;59829;50.562;6.258;2023-12-29T00:40:41;1.55;;;0.45;;
71955;SDS011;59829;50.562;6.258;2023-12-29T00:50:41;1.27;;;0.40;;
71955;SDS011;59829;50.562;6.258;2023-12-29T01:00:42;2.83;;;0.40;;
71955;SDS011;59829;50.562;6.258;2023-12-29T01:10:42;0.88;;;0.40;;
71955;SDS011;59829;50.562;6.258;2023-12-29T01:20:43;1.10;;;0.30;;
71955;SDS011;59829;50.562;6.258;2023-12-29T01:30:43;2.75;;;0.30;;
71955;SDS011;59829;50.562;6.258;2023-12-29T01:40:44;1.55;;;0.30;;
71955;SDS011;59829;50.562;6.258;2023-12-29T01:50:44;1.13;;;0.28;;
71955;SDS011;59829;50.562;6.258;2023-12-29T02:00:45;1.52;;;0.60;;
71955;SDS011;59829;50.562;6.258;2023-12-29T02:10:45;1.70;;;0.50;;
71955;SDS011;59829;50.562;6.258;2023-12-29T02:20:47;1.60;;;0.40;;
71955;SDS011;59829;50.562;6.258;2023-12-29T02:41:17;0.73;;;0.20;;
71955;SDS011;59829;50.562;6.258;2023-12-29T02:51:18;1.02;;;0.30;;
71955;SDS011;59829;50.562;6.258;2023-12-29T03:01:18;1.10;;;0.30;;
71955;SDS011;59829;50.562;6.258;2023-12-29T03:11:18;2.17;;;0.43;;
71955;SDS011;59829;50.562;6.258;2023-12-29T03:21:19;1.75;;;0.30;;
71955;SDS011;59829;50.562;6.258;2023-12-29T03:31:19;0.75;;;0.30;;
71955;SDS011;59829;50.562;6.258;2023-12-29T03:41:20;0.28;;;0.10;;
71955;SDS011;59829;50.562;6.258;2023-12-29T03:51:20;1.58;;;0.20;;
71955;SDS011;59829;50.562;6.258;2023-12-29T04:01:20;0.75;;;0.25;;
71955;SDS011;59829;50.562;6.258;2023-12-29T04:11:21;0.88;;;0.20;;
71955;SDS011;59829;50.562;6.258;2023-12-29T04:21:21;1.10;;;0.20;;
71955;SDS011;59829;50.562;6.258;2023-12-29T04:31:21;0.35;;;0.10;;
71955;SDS011;59829;50.562;6.258;2023-12-29T04:41:21;1.27;;;0.20;;
71955;SDS011;59829;50.562;6.258;2023-12-29T04:51:22;1.30;;;0.40;;
71955;SDS011;59829;50.562;6.258;2023-12-29T05:01:22;1.20;;;0.30;;
71955;SDS011;59829;50.562;6.258;2023-12-29T05:11:22;0.25;;;0.10;;
71955;SDS011;59829;50.562;6.258;2023-12-29T05:21:22;1.27;;;0.22;;
71955;SDS011;59829;50.562;6.258;2023-12-29T05:31:24;0.70;;;0.15;;
71955;SDS011;59829;50.562;6.258;2023-12-29T05:41:24;0.38;;;0.10;;
71955;SDS011;59829;50.562;6.258;2023-12-29T05:51:25;1.15;;;0.20;;
71955;SDS011;59829;50.562;6.258;2023-12-29T06:01:25;0.28;;;0.10;;
71955;SDS011;59829;50.562;6.258;2023-12-29T06:11:25;0.95;;;0.15;;
71955;SDS011;59829;50.562;6.258;2023-12-29T06:21:25;0.98;;;0.20;;
71955;SDS011;59829;50.562;6.258;2023-12-29T06:31:26;0.30;;;0.10;;
71955;SDS011;59829;50.562;6.258;2023-12-29T06:41:26;0.30;;;0.10;;
71955;SDS011;59829;50.562;6.258;2023-12-29T06:51:27;0.98;;;0.20;;
71955;SDS011;59829;50.562;6.258;2023-12-29T07:01:27;1.13;;;0.20;;
71955;SDS011;59829;50.562;6.258;2023-12-29T07:11:28;1.20;;;0.20;;
71955;SDS011;59829;50.562;6.258;2023-12-29T07:21:29;3.08;;;0.30;;
71955;SDS011;59829;50.562;6.258;2023-12-29T07:31:29;2.38;;;0.17;;
71955;SDS011;59829;50.562;6.258;2023-12-29T07:41:29;0.28;;;0.15;;
71955;SDS011;59829;50.562;6.258;2023-12-29T07:51:29;0.63;;;0.10;;
71955;SDS011;59829;50.562;6.258;2023-12-29T08:01:30;1.23;;;0.45;;
71955;SDS011;59829;50.562;6.258;2023-12-29T08:11:30;2.33;;;0.35;;
71955;SDS011;59829;50.562;6.258;2023-12-29T08:21:31;2.38;;;0.60;;
71955;SDS011;59829;50.562;6.258;2023-12-29T08:31:31;0.77;;;0.20;;
71955;SDS011;59829;50.562;6.258;2023-12-29T08:41:31;0.35;;;0.20;;
71955;SDS011;59829;50.562;6.258;2023-12-29T08:51:31;1.20;;;0.20;;
71955;SDS011;59829;50.562;6.258;2023-12-29T09:01:32;0.82;;;0.20;;
71955;SDS011;59829;50.562;6.258;2023-12-29T09:11:33;0.52;;;0.17;;
71955;SDS011;59829;50.562;6.258;2023-12-29T09:21:33;0.32;;;0.10;;
71955;SDS011;59829;50.562;6.258;2023-12-29T09:31:34;0.57;;;0.10;;
71955;SDS011;59829;50.562;6.258;2023-12-29T09:41:34;0.50;;;0.10;;
71955;SDS011;59829;50.562;6.258;2023-12-29T09:51:40;0.25;;;0.10;;
71955;SDS011;59829;50.562;6.258;2023-12-29T10:01:41;1.00;;;0.10;;
71955;SDS011;59829;50.562;6.258;2023-12-29T10:11:44;0.10;;;0.10;;
71955;SDS011;59829;50.562;6.258;2023-12-29T10:21:52;0.00;;;0.00;;
71955;SDS011;59829;50.562;6.258;2023-12-29T10:32:02;0.73;;;0.10;;
71955;SDS011;59829;50.562;6.258;2023-12-29T10:42:06;0.25;;;0.08;;
71955;SDS011;59829;50.562;6.258;2023-12-29T10:52:15;0.10;;;0.00;;
71955;SDS011;59829;50.562;6.258;2023-12-29T11:02:16;0.43;;;0.10;;
71955;SDS011;59829;50.562;6.258;2023-12-29T11:12:17;1.35;;;0.00;;
71955;SDS011;59829;50.562;6.258;2023-12-29T11:22:19;0.52;;;0.10;;
71955;SDS011;59829;50.562;6.258;2023-12-29T11:32:20;0.38;;;0.00;;
71955;SDS011;59829;50.562;6.258;2023-12-29T11:42:31;0.73;;;0.00;;
71955;SDS011;59829;50.562;6.258;2023-12-29T11:52:35;0.30;;;0.10;;
71955;SDS011;59829;50.562;6.258;2023-12-29T12:02:36;0.17;;;0.10;;
71955;SDS011;59829;50.562;6.258;2023-12-29T12:12:40;1.17;;;0.13;;
71955;SDS011;59829;50.562;6.258;2023-12-29T12:22:42;0.30;;;0.00;;
71955;SDS011;59829;50.562;6.258;2023-12-29T12:32:44;0.40;;;0.00;;
71955;SDS011;59829;50.562;6.258;2023-12-29T12:42:44;0.55;;;0.10;;
71955;SDS011;59829;50.562;6.258;2023-12-29T12:52:45;0.10;;;0.10;;
71955;SDS011;59829;50.562;6.258;2023-12-29T13:02:45;0.32;;;0.20;;
71955;SDS011;59829;50.562;6.258;2023-12-29T13:12:52;1.45;;;0.20;;
71955;SDS011;59829;50.562;6.258;2023-12-29T13:22:54;0.40;;;0.17;;
71955;SDS011;59829;50.562;6.258;2023-12-29T13:32:55;1.90;;;0.63;;
71955;SDS011;59829;50.562;6.258;2023-12-29T13:42:57;1.38;;;0.40;;
71955;SDS011;59829;50.562;6.258;2023-12-29T13:53:01;1.17;;;0.20;;
71955;SDS011;59829;50.562;6.258;2023-12-29T14:03:02;0.00;;;0.00;;
71955;SDS011;59829;50.562;6.258;2023-12-29T14:13:06;0.75;;;0.30;;
71955;SDS011;59829;50.562;6.258;2023-12-29T14:23:12;0.52;;;0.20;;
71955;SDS011;59829;50.562;6.258;2023-12-29T14:33:13;1.20;;;0.20;;
71955;SDS011;59829;50.562;6.258;2023-12-29T14:43:14;0.60;;;0.20;;
71955;SDS011;59829;50.562;6.258;2023-12-29T14:53:14;0.38;;;0.25;;
71955;SDS011;59829;50.562;6.258;2023-12-29T15:03:14;1.27;;;0.10;;
71955;SDS011;59829;50.562;6.258;2023-12-29T15:13:15;0.20;;;0.20;;
71955;SDS011;59829;50.562;6.258;2023-12-29T15:23:16;0.10;;;0.03;;
71955;SDS011;59829;50.562;6.258;2023-12-29T15:33:16;1.02;;;0.10;;
71955;SDS011;59829;50.562;6.258;2023-12-29T15:43:16;0.32;;;0.10;;
71955;SDS011;59829;50.562;6.258;2023-12-29T15:53:17;0.55;;;0.20;;
71955;SDS011;59829;50.562;6.258;2023-12-29T16:03:17;0.50;;;0.20;;
71955;SDS011;59829;50.562;6.258;2023-12-29T16:13:18;0.55;;;0.20;;
71955;SDS011;59829;50.562;6.258;2023-12-29T16:23:18;2.95;;;0.30;;
71955;SDS011;59829;50.562;6.258;2023-12-29T16:33:19;0.20;;;0.10;;
71955;SDS011;59829;50.562;6.258;2023-12-29T16:43:19;0.17;;;0.10;;
71955;SDS011;59829;50.562;6.258;2023-12-29T16:53:19;0.20;;;0.10;;
71955;SDS011;59829;50.562;6.258;2023-12-29T17:03:20;0.50;;;0.20;;
71955;SDS011;59829;50.562;6.258;2023-12-29T17:13:21;0.25;;;0.10;;
71955;SDS011;59829;50.562;6.258;2023-12-29T17:23:21;0.32;;;0.10;;
71955;SDS011;59829;50.562;6.258;2023-12-29T17:33:22;0.25;;;0.08;;
71955;SDS011;59829;50.562;6.258;2023-12-29T17:43:23;0.55;;;0.28;;
71955;SDS011;59829;50.562;6.258;2023-12-29T17:53:23;0.40;;;0.20;;
71955;SDS011;59829;50.562;6.258;2023-12-29T18:03:23;0.55;;;0.20;;
71955;SDS011;59829;50.562;6.258;2023-12-29T18:13:24;0.35;;;0.20;;
71955;SDS011;59829;50.562;6.258;2023-12-29T18:23:24;0.85;;;0.15;;
71955;SDS011;59829;50.562;6.258;2023-12-29T18:33:26;0.37;;;0.10;;
71955;SDS011;59829;50.562;6.258;2023-12-29T18:43:27;1.20;;;0.35;;
71955;SDS011;59829;50.562;6.258;2023-12-29T18:53:27;1.02;;;0.20;;
71955;SDS011;59829;50.562;6.258;2023-12-29T19:03:27;0.65;;;0.30;;
71955;SDS011;59829;50.562;6.258;2023-12-29T19:13:28;1.95;;;0.40;;
71955;SDS011;59829;50.562;6.258;2023-12-29T19:23:28;2.63;;;0.38;;
71955;SDS011;59829;50.562;6.258;2023-12-29T19:33:28;1.80;;;0.40;;
71955;SDS011;59829;50.562;6.258;2023-12-29T19:43:29;0.57;;;0.25;;
71955;SDS011;59829;50.562;6.258;2023-12-29T19:53:29;1.35;;;0.28;;
71955;SDS011;59829;50.562;6.258;2023-12-29T20:03:30;1.58;;;0.30;;
71955;SDS011;59829;50.562;6.258;2023-12-29T20:23:33;2.40;;;0.30;;
71955;SDS011;59829;50.562;6.258;2023-12-29T20:33:34;0.68;;;0.10;;
71955;SDS011;59829;50.562;6.258;2023-12-29T20:43:35;2.75;;;0.30;;
71955;SDS011;59829;50.562;6.258;2023-12-29T20:53:35;0.90;;;0.25;;
71955;SDS011;59829;50.562;6.258;2023-12-29T21:03:35;2.60;;;0.20;;
71955;SDS011;59829;50.562;6.258;2023-12-29T21:13:36;1.50;;;0.43;;
71955;SDS011;59829;50.562;6.258;2023-12-29T21:23:37;3.95;;;0.60;;
71955;SDS011;59829;50.562;6.258;2023-12-29T21:33:37;1.85;;;0.30;;
71955;SDS011;59829;50.562;6.258;2023-12-29T21:43:37;2.78;;;0.65;;
71955;SDS011;59829;50.562;6.258;2023-12-29T21:53:37;2.70;;;0.55;;
71955;SDS011;59829;50.562;6.258;2023-12-29T22:03:39;2.17;;;0.63;;
71955;SDS011;59829;50.562;6.258;2023-12-29T22:13:40;1.65;;;0.40;;
71955;SDS011;59829;50.562;6.258;2023-12-29T22:23:40;1.85;;;0.50;;
71955;SDS011;59829;50.562;6.258;2023-12-29T22:33:41;1.77;;;0.50;;
71955;SDS011;59829;50.562;6.258;2023-12-29T22:43:42;3.58;;;0.60;;
71955;SDS011;59829;50.562;6.258;2023-12-29T22:53:43;2.40;;;0.38;;
71955;SDS011;59829;50.562;6.258;2023-12-29T23:03:43;1.55;;;0.28;;
71955;SDS011;59829;50.562;6.258;2023-12-29T23:13:43;2.40;;;0.25;;
71955;SDS011;59829;50.562;6.258;2023-12-29T23:23:45;2.00;;;0.20;;
71955;SDS011;59829;50.562;6.258;2023-12-29T23:33:45;1.45;;;0.30;;
71955;SDS011;59829;50.562;6.258;2023-12-29T23:43:46;1.77;;;0.35;;
71955;SDS011;59829;50.562;6.258;2023-12-29T23:53:48;0.85;;;0.20;;
